sensor_id;sensor_type;location;lat;lon;timestamp;temperature;humidity
44190;DHT22;29856;52.144;5.430;2023-03-21T00:01:04;11.00;99.90
44190;DHT22;29856;52.144;5.430;2023-03-21T00:03:31;11.00;99.90
44190;DHT22;29856;52.144;5.430;2023-03-21T00:05:58;11.10;99.90
44190;DHT22;29856;52.144;5.430;2023-03-21T00:08:24;11.10;99.90
44190;DHT22;29856;52.144;5.430;2023-03-21T00:10:57;11.10;99.90
44190;DHT22;29856;52.144;5.430;2023-03-21T00:13:23;11.00;99.90
44190;DHT22;29856;52.144;5.430;2023-03-21T00:15:49;11.00;99.90
44190;DHT22;29856;52.144;5.430;2023-03-21T00:18:18;11.00;99.90
44190;DHT22;29856;52.144;5.430;2023-03-21T00:20:43;11.00;99.90
44190;DHT22;29856;52.144;5.430;2023-03-21T00:23:08;11.00;99.90
44190;DHT22;29856;52.144;5.430;2023-03-21T00:25:34;11.00;99.90
44190;DHT22;29856;52.144;5.430;2023-03-21T00:27:59;11.00;99.90
44190;DHT22;29856;52.144;5.430;2023-03-21T00:30:25;11.10;99.90
44190;DHT22;29856;52.144;5.430;2023-03-21T00:32:50;11.10;99.90
44190;DHT22;29856;52.144;5.430;2023-03-21T00:35:16;11.10;99.90
44190;DHT22;29856;52.144;5.430;2023-03-21T00:37:41;11.10;99.90
44190;DHT22;29856;52.144;5.430;2023-03-21T00:40:07;11.10;99.90
44190;DHT22;29856;52.144;5.430;2023-03-21T00:42:33;11.20;99.90
44190;DHT22;29856;52.144;5.430;2023-03-21T00:44:59;11.10;99.90
44190;DHT22;29856;52.144;5.430;2023-03-21T00:47:24;11.10;99.90
44190;DHT22;29856;52.144;5.430;2023-03-21T00:49:50;11.10;99.90
44190;DHT22;29856;52.144;5.430;2023-03-21T00:52:15;11.00;99.90
44190;DHT22;29856;52.144;5.430;2023-03-21T00:54:40;11.00;99.90
44190;DHT22;29856;52.144;5.430;2023-03-21T00:57:06;11.00;99.90
44190;DHT22;29856;52.144;5.430;2023-03-21T00:59:31;11.00;99.90
44190;DHT22;29856;52.144;5.430;2023-03-21T01:01:57;11.00;99.90
44190;DHT22;29856;52.144;5.430;2023-03-21T01:04:22;11.00;99.90
44190;DHT22;29856;52.144;5.430;2023-03-21T01:06:48;11.00;99.90
44190;DHT22;29856;52.144;5.430;2023-03-21T01:09:21;11.00;99.90
44190;DHT22;29856;52.144;5.430;2023-03-21T01:11:48;11.00;99.90
44190;DHT22;29856;52.144;5.430;2023-03-21T01:14:16;11.00;99.90
44190;DHT22;29856;52.144;5.430;2023-03-21T01:16:42;11.10;99.90
44190;DHT22;29856;52.144;5.430;2023-03-21T01:19:11;11.10;99.90
44190;DHT22;29856;52.144;5.430;2023-03-21T01:21:36;11.00;99.90
44190;DHT22;29856;52.144;5.430;2023-03-21T01:24:02;11.00;99.90
44190;DHT22;29856;52.144;5.430;2023-03-21T01:26:28;11.10;99.90
44190;DHT22;29856;52.144;5.430;2023-03-21T01:28:53;11.10;99.90
44190;DHT22;29856;52.144;5.430;2023-03-21T01:31:19;11.10;99.90
44190;DHT22;29856;52.144;5.430;2023-03-21T01:33:45;11.10;99.90
44190;DHT22;29856;52.144;5.430;2023-03-21T01:36:16;11.10;99.90
44190;DHT22;29856;52.144;5.430;2023-03-21T01:38:43;11.10;99.90
44190;DHT22;29856;52.144;5.430;2023-03-21T01:41:30;11.10;99.90
44190;DHT22;29856;52.144;5.430;2023-03-21T01:43:57;11.10;99.90
44190;DHT22;29856;52.144;5.430;2023-03-21T01:46:49;11.10;99.90
44190;DHT22;29856;52.144;5.430;2023-03-21T01:51:53;11.10;99.90
44190;DHT22;29856;52.144;5.430;2023-03-21T01:54:26;11.10;99.90
44190;DHT22;29856;52.144;5.430;2023-03-21T01:56:55;11.00;99.90
44190;DHT22;29856;52.144;5.430;2023-03-21T01:59:42;11.10;99.90
44190;DHT22;29856;52.144;5.430;2023-03-21T02:02:12;11.10;99.90
44190;DHT22;29856;52.144;5.430;2023-03-21T02:04:39;11.00;99.90
44190;DHT22;29856;52.144;5.430;2023-03-21T02:07:10;11.00;99.90
44190;DHT22;29856;52.144;5.430;2023-03-21T02:09:38;11.00;99.90
44190;DHT22;29856;52.144;5.430;2023-03-21T02:12:07;11.10;99.90
44190;DHT22;29856;52.144;5.430;2023-03-21T02:14:33;11.00;99.90
44190;DHT22;29856;52.144;5.430;2023-03-21T02:17:08;11.00;99.90
44190;DHT22;29856;52.144;5.430;2023-03-21T02:31:02;11.00;99.90
44190;DHT22;29856;52.144;5.430;2023-03-21T02:41:54;10.90;99.90
44190;DHT22;29856;52.144;5.430;2023-03-21T02:46:56;11.00;99.90
44190;DHT22;29856;52.144;5.430;2023-03-21T02:49:30;11.00;99.90
44190;DHT22;29856;52.144;5.430;2023-03-21T02:51:58;10.90;99.90
44190;DHT22;29856;52.144;5.430;2023-03-21T02:54:25;10.90;99.90
44190;DHT22;29856;52.144;5.430;2023-03-21T02:56:52;10.90;99.90
44190;DHT22;29856;52.144;5.430;2023-03-21T02:59:21;10.90;99.90
44190;DHT22;29856;52.144;5.430;2023-03-21T03:01:50;10.90;99.90
44190;DHT22;29856;52.144;5.430;2023-03-21T03:04:19;11.00;99.90
44190;DHT22;29856;52.144;5.430;2023-03-21T03:10:04;11.00;99.90
44190;DHT22;29856;52.144;5.430;2023-03-21T03:18:23;11.00;99.90
44190;DHT22;29856;52.144;5.430;2023-03-21T03:21:16;11.00;99.90
44190;DHT22;29856;52.144;5.430;2023-03-21T03:23:50;11.00;99.90
44190;DHT22;29856;52.144;5.430;2023-03-21T03:26:44;11.00;99.90
44190;DHT22;29856;52.144;5.430;2023-03-21T03:29:15;11.00;99.90
44190;DHT22;29856;52.144;5.430;2023-03-21T03:31:47;11.00;99.90
44190;DHT22;29856;52.144;5.430;2023-03-21T03:34:18;11.00;99.90
44190;DHT22;29856;52.144;5.430;2023-03-21T03:36:48;11.00;99.90
44190;DHT22;29856;52.144;5.430;2023-03-21T03:39:15;11.00;99.90
44190;DHT22;29856;52.144;5.430;2023-03-21T03:41:51;11.10;99.90
44190;DHT22;29856;52.144;5.430;2023-03-21T03:44:19;11.10;99.90
44190;DHT22;29856;52.144;5.430;2023-03-21T03:49:46;11.00;99.90
44190;DHT22;29856;52.144;5.430;2023-03-21T03:52:19;11.00;99.90
44190;DHT22;29856;52.144;5.430;2023-03-21T03:54:48;11.00;99.90
44190;DHT22;29856;52.144;5.430;2023-03-21T03:57:14;11.10;99.90
44190;DHT22;29856;52.144;5.430;2023-03-21T03:59:42;11.10;99.90
44190;DHT22;29856;52.144;5.430;2023-03-21T04:02:09;11.00;99.90
44190;DHT22;29856;52.144;5.430;2023-03-21T04:04:34;11.10;99.90
44190;DHT22;29856;52.144;5.430;2023-03-21T04:06:59;11.00;99.90
44190;DHT22;29856;52.144;5.430;2023-03-21T04:09:26;11.10;99.90
44190;DHT22;29856;52.144;5.430;2023-03-21T04:11:51;11.10;99.90
44190;DHT22;29856;52.144;5.430;2023-03-21T04:14:16;11.10;99.90
44190;DHT22;29856;52.144;5.430;2023-03-21T04:16:42;11.10;99.90
44190;DHT22;29856;52.144;5.430;2023-03-21T04:19:07;11.10;99.90
44190;DHT22;29856;52.144;5.430;2023-03-21T04:21:33;11.20;99.90
44190;DHT22;29856;52.144;5.430;2023-03-21T04:23:58;11.10;99.90
44190;DHT22;29856;52.144;5.430;2023-03-21T04:26:24;11.10;99.90
44190;DHT22;29856;52.144;5.430;2023-03-21T04:28:50;11.00;99.90
44190;DHT22;29856;52.144;5.430;2023-03-21T04:31:16;11.10;99.90
44190;DHT22;29856;52.144;5.430;2023-03-21T04:33:44;11.10;99.90
44190;DHT22;29856;52.144;5.430;2023-03-21T04:36:10;11.10;99.90
44190;DHT22;29856;52.144;5.430;2023-03-21T04:38:35;11.10;99.90
44190;DHT22;29856;52.144;5.430;2023-03-21T04:41:02;11.10;99.90
44190;DHT22;29856;52.144;5.430;2023-03-21T04:43:27;11.00;99.90
44190;DHT22;29856;52.144;5.430;2023-03-21T04:45:53;11.10;99.90
44190;DHT22;29856;52.144;5.430;2023-03-21T04:48:19;11.10;99.90
44190;DHT22;29856;52.144;5.430;2023-03-21T04:50:45;11.10;99.90
44190;DHT22;29856;52.144;5.430;2023-03-21T04:53:11;11.10;99.90
44190;DHT22;29856;52.144;5.430;2023-03-21T04:55:37;11.10;99.90
44190;DHT22;29856;52.144;5.430;2023-03-21T04:58:04;11.10;99.90
44190;DHT22;29856;52.144;5.430;2023-03-21T05:00:29;11.10;99.90
44190;DHT22;29856;52.144;5.430;2023-03-21T05:02:55;11.10;99.90
44190;DHT22;29856;52.144;5.430;2023-03-21T05:05:20;11.10;99.90
44190;DHT22;29856;52.144;5.430;2023-03-21T05:07:46;11.10;99.90
44190;DHT22;29856;52.144;5.430;2023-03-21T05:10:11;11.10;99.90
44190;DHT22;29856;52.144;5.430;2023-03-21T05:12:37;11.00;99.90
44190;DHT22;29856;52.144;5.430;2023-03-21T05:15:03;11.00;99.90
44190;DHT22;29856;52.144;5.430;2023-03-21T05:17:29;11.00;99.90
44190;DHT22;29856;52.144;5.430;2023-03-21T05:19:54;11.00;99.90
44190;DHT22;29856;52.144;5.430;2023-03-21T05:22:20;11.00;99.90
44190;DHT22;29856;52.144;5.430;2023-03-21T05:24:45;11.10;99.90
44190;DHT22;29856;52.144;5.430;2023-03-21T05:27:11;11.10;99.90
44190;DHT22;29856;52.144;5.430;2023-03-21T05:29:36;11.00;99.90
44190;DHT22;29856;52.144;5.430;2023-03-21T05:32:02;10.90;99.90
44190;DHT22;29856;52.144;5.430;2023-03-21T05:34:28;11.10;99.90
44190;DHT22;29856;52.144;5.430;2023-03-21T05:36:53;11.10;99.90
44190;DHT22;29856;52.144;5.430;2023-03-21T05:39:19;11.10;99.90
44190;DHT22;29856;52.144;5.430;2023-03-21T05:41:45;11.10;99.90
44190;DHT22;29856;52.144;5.430;2023-03-21T05:44:11;11.20;99.90
44190;DHT22;29856;52.144;5.430;2023-03-21T05:46:36;11.30;99.90
44190;DHT22;29856;52.144;5.430;2023-03-21T05:49:02;11.30;99.90
44190;DHT22;29856;52.144;5.430;2023-03-21T05:51:27;11.30;99.90
44190;DHT22;29856;52.144;5.430;2023-03-21T05:53:53;11.30;99.90
44190;DHT22;29856;52.144;5.430;2023-03-21T05:56:18;11.40;99.90
44190;DHT22;29856;52.144;5.430;2023-03-21T05:58:44;11.40;99.90
44190;DHT22;29856;52.144;5.430;2023-03-21T06:01:09;11.40;99.90
44190;DHT22;29856;52.144;5.430;2023-03-21T06:03:35;11.30;99.90
44190;DHT22;29856;52.144;5.430;2023-03-21T06:06:00;11.30;99.90
44190;DHT22;29856;52.144;5.430;2023-03-21T06:08:26;11.20;99.90
44190;DHT22;29856;52.144;5.430;2023-03-21T06:10:51;11.30;99.90
44190;DHT22;29856;52.144;5.430;2023-03-21T06:13:17;11.30;99.90
44190;DHT22;29856;52.144;5.430;2023-03-21T06:15:42;11.30;99.90
44190;DHT22;29856;52.144;5.430;2023-03-21T06:18:07;11.40;99.90
44190;DHT22;29856;52.144;5.430;2023-03-21T06:20:33;11.50;99.90
44190;DHT22;29856;52.144;5.430;2023-03-21T06:22:58;11.50;99.90
44190;DHT22;29856;52.144;5.430;2023-03-21T06:25:24;11.40;99.90
44190;DHT22;29856;52.144;5.430;2023-03-21T06:27:49;11.40;99.90
44190;DHT22;29856;52.144;5.430;2023-03-21T06:30:16;11.40;99.90
44190;DHT22;29856;52.144;5.430;2023-03-21T06:32:43;11.30;99.90
44190;DHT22;29856;52.144;5.430;2023-03-21T06:35:08;11.30;99.90
44190;DHT22;29856;52.144;5.430;2023-03-21T06:37:34;11.30;99.90
44190;DHT22;29856;52.144;5.430;2023-03-21T06:39:59;11.40;99.90
44190;DHT22;29856;52.144;5.430;2023-03-21T06:42:25;11.30;99.90
44190;DHT22;29856;52.144;5.430;2023-03-21T06:44:51;11.30;99.90
44190;DHT22;29856;52.144;5.430;2023-03-21T06:47:16;11.30;99.90
44190;DHT22;29856;52.144;5.430;2023-03-21T06:49:42;11.30;99.90
44190;DHT22;29856;52.144;5.430;2023-03-21T06:52:07;11.30;99.90
44190;DHT22;29856;52.144;5.430;2023-03-21T06:54:33;11.30;99.90
44190;DHT22;29856;52.144;5.430;2023-03-21T06:56:59;11.20;99.90
44190;DHT22;29856;52.144;5.430;2023-03-21T06:59:24;11.20;99.90
44190;DHT22;29856;52.144;5.430;2023-03-21T07:01:50;11.20;99.90
44190;DHT22;29856;52.144;5.430;2023-03-21T07:04:15;11.20;99.90
44190;DHT22;29856;52.144;5.430;2023-03-21T07:06:40;11.10;99.90
44190;DHT22;29856;52.144;5.430;2023-03-21T07:09:06;11.00;99.90
44190;DHT22;29856;52.144;5.430;2023-03-21T07:11:32;11.10;99.90
44190;DHT22;29856;52.144;5.430;2023-03-21T07:13:57;11.20;99.90
44190;DHT22;29856;52.144;5.430;2023-03-21T07:16:23;11.10;99.90
44190;DHT22;29856;52.144;5.430;2023-03-21T07:18:48;11.20;99.90
44190;DHT22;29856;52.144;5.430;2023-03-21T07:21:14;11.20;99.90
44190;DHT22;29856;52.144;5.430;2023-03-21T07:23:39;11.20;99.90
44190;DHT22;29856;52.144;5.430;2023-03-21T07:26:05;11.20;99.90
44190;DHT22;29856;52.144;5.430;2023-03-21T07:28:31;11.30;99.90
44190;DHT22;29856;52.144;5.430;2023-03-21T07:31:02;11.20;99.90
44190;DHT22;29856;52.144;5.430;2023-03-21T07:33:27;11.20;99.90
44190;DHT22;29856;52.144;5.430;2023-03-21T07:35:54;11.20;99.90
44190;DHT22;29856;52.144;5.430;2023-03-21T07:38:20;11.20;99.90
44190;DHT22;29856;52.144;5.430;2023-03-21T07:40:46;11.30;99.90
44190;DHT22;29856;52.144;5.430;2023-03-21T07:43:13;11.20;99.90
44190;DHT22;29856;52.144;5.430;2023-03-21T07:45:39;11.20;99.90
44190;DHT22;29856;52.144;5.430;2023-03-21T07:48:04;11.20;99.90
44190;DHT22;29856;52.144;5.430;2023-03-21T07:50:30;11.20;99.90
44190;DHT22;29856;52.144;5.430;2023-03-21T07:52:55;11.20;99.90
44190;DHT22;29856;52.144;5.430;2023-03-21T07:55:21;11.20;99.90
44190;DHT22;29856;52.144;5.430;2023-03-21T07:57:49;11.30;99.90
44190;DHT22;29856;52.144;5.430;2023-03-21T08:00:16;11.40;99.90
44190;DHT22;29856;52.144;5.430;2023-03-21T08:02:41;11.40;99.90
44190;DHT22;29856;52.144;5.430;2023-03-21T08:05:07;11.40;99.90
44190;DHT22;29856;52.144;5.430;2023-03-21T08:07:33;11.50;99.90
44190;DHT22;29856;52.144;5.430;2023-03-21T08:09:58;11.50;99.90
44190;DHT22;29856;52.144;5.430;2023-03-21T08:12:24;11.60;99.90
44190;DHT22;29856;52.144;5.430;2023-03-21T08:14:49;11.60;99.90
44190;DHT22;29856;52.144;5.430;2023-03-21T08:17:14;11.60;99.90
44190;DHT22;29856;52.144;5.430;2023-03-21T08:19:40;11.50;99.90
44190;DHT22;29856;52.144;5.430;2023-03-21T08:22:05;11.60;99.90
44190;DHT22;29856;52.144;5.430;2023-03-21T08:24:31;11.60;99.90
44190;DHT22;29856;52.144;5.430;2023-03-21T08:26:57;11.60;99.90
44190;DHT22;29856;52.144;5.430;2023-03-21T08:29:22;11.60;99.90
44190;DHT22;29856;52.144;5.430;2023-03-21T08:31:48;11.60;99.90
44190;DHT22;29856;52.144;5.430;2023-03-21T08:34:13;11.60;99.90
44190;DHT22;29856;52.144;5.430;2023-03-21T08:36:39;11.60;99.90
44190;DHT22;29856;52.144;5.430;2023-03-21T08:39:05;11.60;99.90
44190;DHT22;29856;52.144;5.430;2023-03-21T08:41:34;11.60;99.90
44190;DHT22;29856;52.144;5.430;2023-03-21T08:44:00;11.70;99.90
44190;DHT22;29856;52.144;5.430;2023-03-21T08:46:26;11.60;99.90
44190;DHT22;29856;52.144;5.430;2023-03-21T08:48:53;11.60;99.90
44190;DHT22;29856;52.144;5.430;2023-03-21T08:51:18;11.60;99.90
44190;DHT22;29856;52.144;5.430;2023-03-21T08:53:44;11.70;99.90
44190;DHT22;29856;52.144;5.430;2023-03-21T08:56:10;11.70;99.90
44190;DHT22;29856;52.144;5.430;2023-03-21T08:58:36;11.80;99.90
44190;DHT22;29856;52.144;5.430;2023-03-21T09:01:02;11.80;99.90
44190;DHT22;29856;52.144;5.430;2023-03-21T09:03:27;11.90;99.90
44190;DHT22;29856;52.144;5.430;2023-03-21T09:05:53;11.80;99.90
44190;DHT22;29856;52.144;5.430;2023-03-21T09:08:19;11.80;99.90
44190;DHT22;29856;52.144;5.430;2023-03-21T09:10:44;11.90;99.90
44190;DHT22;29856;52.144;5.430;2023-03-21T09:13:10;11.90;99.90
44190;DHT22;29856;52.144;5.430;2023-03-21T09:15:35;11.90;99.90
44190;DHT22;29856;52.144;5.430;2023-03-21T09:18:01;11.80;99.90
44190;DHT22;29856;52.144;5.430;2023-03-21T09:20:26;11.80;99.90
44190;DHT22;29856;52.144;5.430;2023-03-21T09:22:52;11.80;99.90
44190;DHT22;29856;52.144;5.430;2023-03-21T09:25:18;11.90;99.90
44190;DHT22;29856;52.144;5.430;2023-03-21T09:27:47;12.00;99.90
44190;DHT22;29856;52.144;5.430;2023-03-21T09:30:17;11.90;99.90
44190;DHT22;29856;52.144;5.430;2023-03-21T09:32:44;11.90;99.90
44190;DHT22;29856;52.144;5.430;2023-03-21T09:35:09;11.90;99.90
44190;DHT22;29856;52.144;5.430;2023-03-21T09:37:35;11.90;99.90
44190;DHT22;29856;52.144;5.430;2023-03-21T09:40:00;12.00;99.90
44190;DHT22;29856;52.144;5.430;2023-03-21T09:47:44;12.00;99.90
44190;DHT22;29856;52.144;5.430;2023-03-21T09:50:11;12.00;99.90
44190;DHT22;29856;52.144;5.430;2023-03-21T09:55:27;12.10;99.90
44190;DHT22;29856;52.144;5.430;2023-03-21T10:00:43;12.10;99.90
44190;DHT22;29856;52.144;5.430;2023-03-21T10:03:24;12.20;99.90
44190;DHT22;29856;52.144;5.430;2023-03-21T10:05:53;12.30;99.90
44190;DHT22;29856;52.144;5.430;2023-03-21T10:08:21;12.30;99.90
44190;DHT22;29856;52.144;5.430;2023-03-21T10:10:51;12.30;99.90
44190;DHT22;29856;52.144;5.430;2023-03-21T10:13:25;12.30;99.90
44190;DHT22;29856;52.144;5.430;2023-03-21T10:16:01;12.30;99.90
44190;DHT22;29856;52.144;5.430;2023-03-21T10:18:35;12.30;99.90
44190;DHT22;29856;52.144;5.430;2023-03-21T10:21:03;12.40;99.90
44190;DHT22;29856;52.144;5.430;2023-03-21T10:23:29;12.50;99.90
44190;DHT22;29856;52.144;5.430;2023-03-21T10:25:58;12.50;99.90
44190;DHT22;29856;52.144;5.430;2023-03-21T10:28:31;12.50;99.90
44190;DHT22;29856;52.144;5.430;2023-03-21T10:31:06;12.60;99.90
44190;DHT22;29856;52.144;5.430;2023-03-21T10:33:41;12.60;99.90
44190;DHT22;29856;52.144;5.430;2023-03-21T10:36:11;12.60;99.90
44190;DHT22;29856;52.144;5.430;2023-03-21T10:38:44;12.70;99.90
44190;DHT22;29856;52.144;5.430;2023-03-21T10:41:10;12.70;99.90
44190;DHT22;29856;52.144;5.430;2023-03-21T10:43:38;12.80;99.90
44190;DHT22;29856;52.144;5.430;2023-03-21T10:46:07;12.80;99.90
44190;DHT22;29856;52.144;5.430;2023-03-21T10:48:35;12.90;99.90
44190;DHT22;29856;52.144;5.430;2023-03-21T10:51:01;12.90;99.90
44190;DHT22;29856;52.144;5.430;2023-03-21T10:53:39;12.90;99.90
44190;DHT22;29856;52.144;5.430;2023-03-21T10:56:07;13.00;99.90
44190;DHT22;29856;52.144;5.430;2023-03-21T10:58:37;13.00;99.90
44190;DHT22;29856;52.144;5.430;2023-03-21T11:01:06;13.10;99.90
44190;DHT22;29856;52.144;5.430;2023-03-21T11:03:36;13.10;99.90
44190;DHT22;29856;52.144;5.430;2023-03-21T11:06:16;13.10;99.90
44190;DHT22;29856;52.144;5.430;2023-03-21T11:08:50;13.10;99.90
44190;DHT22;29856;52.144;5.430;2023-03-21T11:11:42;13.10;99.90
44190;DHT22;29856;52.144;5.430;2023-03-21T11:14:07;13.10;99.90
44190;DHT22;29856;52.144;5.430;2023-03-21T11:16:42;13.20;99.90
44190;DHT22;29856;52.144;5.430;2023-03-21T11:19:17;13.30;99.90
44190;DHT22;29856;52.144;5.430;2023-03-21T11:21:43;13.40;99.90
44190;DHT22;29856;52.144;5.430;2023-03-21T11:24:16;13.40;99.90
44190;DHT22;29856;52.144;5.430;2023-03-21T11:26:45;13.40;99.90
44190;DHT22;29856;52.144;5.430;2023-03-21T11:29:33;13.40;99.90
44190;DHT22;29856;52.144;5.430;2023-03-21T11:32:08;13.50;99.90
44190;DHT22;29856;52.144;5.430;2023-03-21T11:34:48;13.70;99.90
44190;DHT22;29856;52.144;5.430;2023-03-21T11:37:20;13.70;99.90
44190;DHT22;29856;52.144;5.430;2023-03-21T11:39:54;13.70;99.90
44190;DHT22;29856;52.144;5.430;2023-03-21T11:42:31;13.80;99.90
44190;DHT22;29856;52.144;5.430;2023-03-21T11:45:04;13.90;99.90
44190;DHT22;29856;52.144;5.430;2023-03-21T11:47:34;13.90;99.90
44190;DHT22;29856;52.144;5.430;2023-03-21T11:50:00;13.90;99.90
44190;DHT22;29856;52.144;5.430;2023-03-21T11:52:40;13.90;99.90
44190;DHT22;29856;52.144;5.430;2023-03-21T12:00:17;14.00;99.90
44190;DHT22;29856;52.144;5.430;2023-03-21T12:05:45;14.00;99.90
44190;DHT22;29856;52.144;5.430;2023-03-21T12:11:07;14.00;99.90
44190;DHT22;29856;52.144;5.430;2023-03-21T12:24:07;14.10;99.90
44190;DHT22;29856;52.144;5.430;2023-03-21T12:26:51;14.10;99.90
44190;DHT22;29856;52.144;5.430;2023-03-21T12:38:08;14.10;99.90
44190;DHT22;29856;52.144;5.430;2023-03-21T12:45:54;14.30;99.90
44190;DHT22;29856;52.144;5.430;2023-03-21T12:51:03;14.50;99.90
44190;DHT22;29856;52.144;5.430;2023-03-21T12:56:08;14.80;99.90
44190;DHT22;29856;52.144;5.430;2023-03-21T12:58:43;14.90;99.90
44190;DHT22;29856;52.144;5.430;2023-03-21T13:01:09;15.10;99.90
44190;DHT22;29856;52.144;5.430;2023-03-21T13:03:47;15.20;99.90
44190;DHT22;29856;52.144;5.430;2023-03-21T13:06:23;15.20;99.90
44190;DHT22;29856;52.144;5.430;2023-03-21T13:11:23;15.60;99.90
44190;DHT22;29856;52.144;5.430;2023-03-21T13:13:55;15.50;99.90
44190;DHT22;29856;52.144;5.430;2023-03-21T13:16:37;15.40;99.90
44190;DHT22;29856;52.144;5.430;2023-03-21T13:19:36;15.50;99.90
44190;DHT22;29856;52.144;5.430;2023-03-21T13:22:27;15.30;99.90
44190;DHT22;29856;52.144;5.430;2023-03-21T13:25:16;15.40;99.90
44190;DHT22;29856;52.144;5.430;2023-03-21T13:27:42;15.50;99.90
44190;DHT22;29856;52.144;5.430;2023-03-21T13:32:41;15.40;99.90
44190;DHT22;29856;52.144;5.430;2023-03-21T13:35:25;15.30;99.90
44190;DHT22;29856;52.144;5.430;2023-03-21T13:38:00;15.20;99.90
44190;DHT22;29856;52.144;5.430;2023-03-21T13:40:37;15.20;99.90
44190;DHT22;29856;52.144;5.430;2023-03-21T13:43:04;15.20;99.90
44190;DHT22;29856;52.144;5.430;2023-03-21T13:45:53;15.20;99.90
44190;DHT22;29856;52.144;5.430;2023-03-21T13:48:27;15.30;99.90
44190;DHT22;29856;52.144;5.430;2023-03-21T13:51:44;15.40;99.90
44190;DHT22;29856;52.144;5.430;2023-03-21T13:56:52;15.30;99.90
44190;DHT22;29856;52.144;5.430;2023-03-21T13:59:39;15.30;99.90
44190;DHT22;29856;52.144;5.430;2023-03-21T14:04:46;15.20;99.90
44190;DHT22;29856;52.144;5.430;2023-03-21T14:07:20;15.20;99.90
44190;DHT22;29856;52.144;5.430;2023-03-21T14:09:48;15.10;99.90
44190;DHT22;29856;52.144;5.430;2023-03-21T14:12:17;15.10;99.90
44190;DHT22;29856;52.144;5.430;2023-03-21T14:14:47;15.10;99.90
44190;DHT22;29856;52.144;5.430;2023-03-21T14:17:22;15.10;99.90
44190;DHT22;29856;52.144;5.430;2023-03-21T14:19:55;15.10;99.90
44190;DHT22;29856;52.144;5.430;2023-03-21T14:22:21;15.00;99.90
44190;DHT22;29856;52.144;5.430;2023-03-21T14:24:53;15.00;99.90
44190;DHT22;29856;52.144;5.430;2023-03-21T14:27:19;14.90;99.90
44190;DHT22;29856;52.144;5.430;2023-03-21T14:29:45;14.80;99.90
44190;DHT22;29856;52.144;5.430;2023-03-21T14:32:18;14.70;99.90
44190;DHT22;29856;52.144;5.430;2023-03-21T14:34:46;14.70;99.90
44190;DHT22;29856;52.144;5.430;2023-03-21T14:37:24;14.80;99.90
44190;DHT22;29856;52.144;5.430;2023-03-21T14:39:56;14.90;99.90
44190;DHT22;29856;52.144;5.430;2023-03-21T14:42:24;14.80;99.90
44190;DHT22;29856;52.144;5.430;2023-03-21T14:44:49;14.90;99.90
44190;DHT22;29856;52.144;5.430;2023-03-21T14:47:21;14.90;99.90
44190;DHT22;29856;52.144;5.430;2023-03-21T14:49:48;14.80;99.90
44190;DHT22;29856;52.144;5.430;2023-03-21T14:52:38;14.70;99.90
44190;DHT22;29856;52.144;5.430;2023-03-21T14:55:12;14.80;99.90
44190;DHT22;29856;52.144;5.430;2023-03-21T14:57:38;14.80;99.90
44190;DHT22;29856;52.144;5.430;2023-03-21T15:00:06;14.80;99.90
44190;DHT22;29856;52.144;5.430;2023-03-21T15:02:34;14.80;99.90
44190;DHT22;29856;52.144;5.430;2023-03-21T15:05:16;14.80;99.90
44190;DHT22;29856;52.144;5.430;2023-03-21T15:07:52;14.80;99.90
44190;DHT22;29856;52.144;5.430;2023-03-21T15:10:20;14.80;99.90
44190;DHT22;29856;52.144;5.430;2023-03-21T15:12:55;14.70;99.90
44190;DHT22;29856;52.144;5.430;2023-03-21T15:15:22;14.80;99.90
44190;DHT22;29856;52.144;5.430;2023-03-21T15:17:49;14.70;99.90
44190;DHT22;29856;52.144;5.430;2023-03-21T15:20:15;14.70;99.90
44190;DHT22;29856;52.144;5.430;2023-03-21T15:22:49;14.70;99.90
44190;DHT22;29856;52.144;5.430;2023-03-21T15:25:20;14.60;99.90
44190;DHT22;29856;52.144;5.430;2023-03-21T15:27:48;14.60;99.90
44190;DHT22;29856;52.144;5.430;2023-03-21T15:30:23;14.60;99.90
44190;DHT22;29856;52.144;5.430;2023-03-21T15:32:49;14.60;99.90
44190;DHT22;29856;52.144;5.430;2023-03-21T15:35:20;14.60;99.90
44190;DHT22;29856;52.144;5.430;2023-03-21T15:37:57;14.60;99.90
44190;DHT22;29856;52.144;5.430;2023-03-21T15:40:28;14.60;99.90
44190;DHT22;29856;52.144;5.430;2023-03-21T15:43:17;14.50;99.90
44190;DHT22;29856;52.144;5.430;2023-03-21T15:45:54;14.50;99.90
44190;DHT22;29856;52.144;5.430;2023-03-21T15:48:21;14.50;99.90
44190;DHT22;29856;52.144;5.430;2023-03-21T15:50:57;14.50;99.90
44190;DHT22;29856;52.144;5.430;2023-03-21T15:53:24;14.50;99.90
44190;DHT22;29856;52.144;5.430;2023-03-21T15:55:51;14.50;99.90
44190;DHT22;29856;52.144;5.430;2023-03-21T15:58:22;14.40;99.90
44190;DHT22;29856;52.144;5.430;2023-03-21T16:00:51;14.40;99.90
44190;DHT22;29856;52.144;5.430;2023-03-21T16:03:25;14.30;99.90
44190;DHT22;29856;52.144;5.430;2023-03-21T16:06:06;14.40;99.90
44190;DHT22;29856;52.144;5.430;2023-03-21T16:09:21;14.20;99.90
44190;DHT22;29856;52.144;5.430;2023-03-21T16:11:23;14.20;99.90
44190;DHT22;29856;52.144;5.430;2023-03-21T16:13:50;14.10;99.90
44190;DHT22;29856;52.144;5.430;2023-03-21T16:16:20;14.10;99.90
44190;DHT22;29856;52.144;5.430;2023-03-21T16:18:46;14.10;99.90
44190;DHT22;29856;52.144;5.430;2023-03-21T16:21:17;14.10;99.90
44190;DHT22;29856;52.144;5.430;2023-03-21T16:23:43;13.90;99.90
44190;DHT22;29856;52.144;5.430;2023-03-21T16:26:14;13.80;99.90
44190;DHT22;29856;52.144;5.430;2023-03-21T16:28:40;13.70;99.90
44190;DHT22;29856;52.144;5.430;2023-03-21T16:31:12;13.70;99.90
44190;DHT22;29856;52.144;5.430;2023-03-21T16:33:38;13.70;99.90
44190;DHT22;29856;52.144;5.430;2023-03-21T16:36:03;13.60;99.90
44190;DHT22;29856;52.144;5.430;2023-03-21T16:38:29;13.40;99.90
44190;DHT22;29856;52.144;5.430;2023-03-21T16:40:54;13.40;99.90
44190;DHT22;29856;52.144;5.430;2023-03-21T16:43:20;13.30;99.90
44190;DHT22;29856;52.144;5.430;2023-03-21T16:45:45;13.30;99.90
44190;DHT22;29856;52.144;5.430;2023-03-21T16:48:15;13.30;99.90
44190;DHT22;29856;52.144;5.430;2023-03-21T16:50:44;13.30;99.90
44190;DHT22;29856;52.144;5.430;2023-03-21T16:53:10;13.30;99.90
44190;DHT22;29856;52.144;5.430;2023-03-21T16:55:35;13.20;99.90
44190;DHT22;29856;52.144;5.430;2023-03-21T16:58:02;13.30;99.90
44190;DHT22;29856;52.144;5.430;2023-03-21T17:00:28;13.30;99.90
44190;DHT22;29856;52.144;5.430;2023-03-21T17:02:55;13.30;99.90
44190;DHT22;29856;52.144;5.430;2023-03-21T17:05:22;13.20;99.90
44190;DHT22;29856;52.144;5.430;2023-03-21T17:07:47;13.30;99.90
44190;DHT22;29856;52.144;5.430;2023-03-21T17:12:38;13.40;99.90
44190;DHT22;29856;52.144;5.430;2023-03-21T17:15:04;13.40;99.90
44190;DHT22;29856;52.144;5.430;2023-03-21T17:17:30;13.50;99.90
44190;DHT22;29856;52.144;5.430;2023-03-21T17:19:55;13.50;99.90
44190;DHT22;29856;52.144;5.430;2023-03-21T17:22:21;13.50;99.90